Time;durP1;ratioP1;P1;durP2;ratioP2;P2;SDS_P1;SDS_P2;PMS_P1;PMS_P2;Temp;Humidity;BMP_temperature;BMP_pressure;BME280_temperature;BME280_humidity;BME280_pressure;Samples;Min_cycle;Max_cycle;Signal;HPM_P1;HPM_P2
2023/06/09 00:00:07;;;;;;;0.40;0.40;;;10.90;99.90;;;;;;5091516;28;20040;-74
2023/06/09 00:02:34;;;;;;;0.20;0.20;;;10.70;99.90;;;;;;5075201;28;20035;-74
2023/06/09 00:05:00;;;;;;;0.43;0.43;;;10.80;99.90;;;;;;5091480;28;20047;-74
2023/06/09 00:07:27;;;;;;;;;;;10.70;99.90;;;;;;5075816;28;20036;-74
2023/06/09 00:09:53;;;;;;;0.32;0.32;;;10.60;99.90;;;;;;5091926;28;20369;-74
2023/06/09 00:12:18;;;;;;;0.43;0.43;;;10.60;99.90;;;;;;5092088;28;20075;-74
2023/06/09 00:14:44;;;;;;;0.30;0.30;;;10.60;99.90;;;;;;5058363;28;20048;-74
2023/06/09 00:17:10;;;;;;;0.40;0.40;;;10.60;99.90;;;;;;5074540;28;20050;-74
2023/06/09 00:19:37;;;;;;;0.30;0.30;;;10.60;99.90;;;;;;5091275;28;20063;-74
2023/06/09 00:22:05;;;;;;;0.40;0.40;;;10.60;99.90;;;;;;5091304;28;20040;-74
2023/06/09 00:24:30;;;;;;;0.40;0.40;;;10.60;99.90;;;;;;5074765;28;20043;-74
2023/06/09 00:26:56;;;;;;;0.30;0.30;;;10.70;99.90;;;;;;5057274;28;20092;-74
2023/06/09 00:29:22;;;;;;;0.30;0.30;;;10.60;99.90;;;;;;5074539;28;20044;-74
2023/06/09 00:31:48;;;;;;;0.40;0.40;;;10.60;99.90;;;;;;5091392;28;20078;-74
2023/06/09 00:34:14;;;;;;;0.40;0.40;;;10.50;99.90;;;;;;5074157;28;20084;-74
2023/06/09 00:36:40;;;;;;;0.30;0.30;;;10.60;99.90;;;;;;5091189;28;20036;-74
2023/06/09 00:39:06;;;;;;;0.30;0.30;;;10.60;99.90;;;;;;5090799;28;20036;-73
2023/06/09 00:41:36;;;;;;;0.43;0.43;;;10.50;99.90;;;;;;5057949;28;20093;-74
2023/06/09 00:44:03;;;;;;;0.32;0.32;;;10.60;99.90;;;;;;5090647;28;20051;-74
2023/06/09 00:46:28;;;;;;;;;;;10.60;99.90;;;;;;5091614;28;20040;-73
2023/06/09 00:48:54;;;;;;;0.40;0.40;;;10.50;99.90;;;;;;5090652;28;19932;-74
2023/06/09 00:51:20;;;;;;;0.60;0.60;;;10.50;99.90;;;;;;5090944;28;20152;-74
2023/06/09 00:53:46;;;;;;;0.45;0.45;;;10.60;99.90;;;;;;5091020;28;20090;-74
2023/06/09 00:56:12;;;;;;;0.50;0.50;;;10.50;99.90;;;;;;5090467;28;20040;-74
2023/06/09 00:58:38;;;;;;;;;;;10.40;99.90;;;;;;5073336;28;20062;-74
2023/06/09 01:01:04;;;;;;;0.40;0.40;;;10.40;99.90;;;;;;5074125;28;19924;-74
2023/06/09 01:03:32;;;;;;;;;;;10.50;99.90;;;;;;5091658;28;20123;-74
2023/06/09 01:06:26;;;;;;;0.30;0.30;;;10.50;99.90;;;;;;5090940;28;19920;-74
2023/06/09 01:09:24;;;;;;;0.30;0.30;;;10.40;99.90;;;;;;5090680;28;20139;-74
2023/06/09 01:12:08;;;;;;;0.40;0.40;;;10.30;99.90;;;;;;5073674;28;20063;-74
2023/06/09 01:14:58;;;;;;;0.30;0.30;;;10.60;99.90;;;;;;5091258;28;20138;-74
2023/06/09 01:17:27;;;;;;;0.35;0.35;;;10.60;99.90;;;;;;5091082;28;20130;-75
2023/06/09 01:19:58;;;;;;;0.40;0.40;;;10.60;99.90;;;;;;5090348;28;20109;-74
2023/06/09 01:22:37;;;;;;;0.60;0.60;;;10.60;99.90;;;;;;5073560;28;20044;-75
2023/06/09 01:25:25;;;;;;;0.30;0.30;;;10.60;99.90;;;;;;5089975;28;20043;-74
2023/06/09 01:27:52;;;;;;;0.40;0.40;;;10.50;99.90;;;;;;5090629;28;20039;-74
2023/06/09 01:30:21;;;;;;;0.30;0.30;;;10.60;99.90;;;;;;5124243;27;20059;-74
2023/06/09 01:32:48;;;;;;;0.40;0.40;;;10.40;99.90;;;;;;5124485;27;20127;-74
2023/06/09 01:35:14;;;;;;;0.40;0.40;;;10.50;99.90;;;;;;5123970;27;20101;-74
2023/06/09 01:37:41;;;;;;;0.40;0.40;;;10.50;99.90;;;;;;5089791;28;20082;-74
2023/06/09 01:40:07;;;;;;;;;;;10.50;99.90;;;;;;5090501;28;20482;-75
2023/06/09 01:42:32;;;;;;;0.30;0.30;;;10.40;99.90;;;;;;5090146;28;19945;-74
2023/06/09 01:44:58;;;;;;;0.20;0.20;;;10.40;99.90;;;;;;5089531;28;20047;-74
2023/06/09 01:47:24;;;;;;;0.30;0.30;;;10.40;99.90;;;;;;5090096;28;20072;-74
2023/06/09 01:50:07;;;;;;;0.30;0.30;;;10.60;99.90;;;;;;5089997;28;20425;-74
2023/06/09 01:52:44;;;;;;;2.92;2.72;;;10.50;99.90;;;;;;5089751;28;20555;-74
2023/06/09 01:55:14;;;;;;;;;;;10.50;99.90;;;;;;5103933;28;20444;-74
2023/06/09 01:57:51;;;;;;;0.40;0.40;;;10.50;99.90;;;;;;5069298;28;20364;-74
2023/06/09 02:00:20;;;;;;;0.30;0.30;;;10.50;99.90;;;;;;5069076;28;20075;-74
2023/06/09 02:02:48;;;;;;;0.40;0.40;;;10.40;99.90;;;;;;5069226;28;20087;-74
2023/06/09 02:05:16;;;;;;;0.30;0.30;;;10.40;99.90;;;;;;5052122;28;20127;-74
2023/06/09 02:07:44;;;;;;;0.65;0.45;;;10.30;99.90;;;;;;5069795;28;20695;-74
2023/06/09 02:10:11;;;;;;;0.50;0.50;;;10.30;99.90;;;;;;5068779;28;20045;-75
2023/06/09 02:12:36;;;;;;;0.40;0.40;;;10.30;99.90;;;;;;5052910;28;20036;-74
2023/06/09 02:15:04;;;;;;;0.30;0.30;;;10.20;99.90;;;;;;5066099;28;20046;-75
2023/06/09 02:17:32;;;;;;;0.30;0.30;;;10.30;99.90;;;;;;5072611;28;20127;-74
2023/06/09 02:19:58;;;;;;;0.40;0.40;;;10.30;99.90;;;;;;5089249;28;20056;-75
2023/06/09 02:22:24;;;;;;;0.43;0.43;;;10.90;99.90;;;;;;5072645;28;20047;-74
2023/06/09 02:24:50;;;;;;;0.30;0.30;;;10.30;99.90;;;;;;5089517;28;20097;-75
2023/06/09 02:27:16;;;;;;;0.40;0.40;;;10.40;99.90;;;;;;5123119;27;20481;-74
2023/06/09 02:29:42;;;;;;;0.50;0.50;;;10.40;99.90;;;;;;5073127;28;20052;-75
2023/06/09 02:32:08;;;;;;;0.38;0.38;;;10.40;99.90;;;;;;5124466;27;20150;-74
2023/06/09 02:34:34;;;;;;;0.40;0.40;;;10.40;99.90;;;;;;5107509;28;20508;-75
2023/06/09 02:37:00;;;;;;;;;;;10.40;99.90;;;;;;5073661;28;20044;-75
2023/06/09 02:39:26;;;;;;;0.32;0.32;;;10.40;99.90;;;;;;5072650;28;19924;-75
2023/06/09 02:41:52;;;;;;;0.32;0.32;;;10.40;99.90;;;;;;5089308;28;20036;-74
2023/06/09 02:44:18;;;;;;;0.38;0.38;;;10.40;99.90;;;;;;5088550;28;20542;-74
2023/06/09 02:46:44;;;;;;;0.40;0.40;;;10.40;99.90;;;;;;5089629;28;20042;-74
2023/06/09 02:49:10;;;;;;;0.30;0.30;;;10.40;99.90;;;;;;5088745;28;20044;-74
2023/06/09 02:51:36;;;;;;;0.22;0.22;;;10.50;99.90;;;;;;5096068;28;20358;-74
2023/06/09 02:54:05;;;;;;;0.30;0.30;;;10.50;99.90;;;;;;5098326;28;20051;-74
2023/06/09 02:56:31;;;;;;;0.40;0.40;;;10.40;99.90;;;;;;5089355;28;20043;-74
2023/06/09 02:58:57;;;;;;;0.30;0.30;;;10.30;99.90;;;;;;5089133;28;20503;-74
2023/06/09 03:01:23;;;;;;;0.55;0.55;;;10.30;99.90;;;;;;5088180;28;20048;-74
2023/06/09 03:03:49;;;;;;;0.20;0.20;;;10.30;99.90;;;;;;5071734;28;20048;-74
2023/06/09 03:06:16;;;;;;;0.40;0.40;;;10.30;99.90;;;;;;5088115;28;20044;-74
2023/06/09 03:08:42;;;;;;;0.40;0.40;;;10.30;99.90;;;;;;5071729;28;20056;-74
2023/06/09 03:11:09;;;;;;;0.40;0.40;;;10.30;99.90;;;;;;5087496;28;20633;-74
2023/06/09 03:13:34;;;;;;;;;;;10.30;99.90;;;;;;5071397;28;20469;-74
2023/06/09 03:16:00;;;;;;;0.40;0.40;;;10.30;99.90;;;;;;5087684;28;19966;-74
2023/06/09 03:18:27;;;;;;;0.55;0.55;;;10.30;99.90;;;;;;5070971;28;20040;-74
2023/06/09 03:20:53;;;;;;;0.40;0.40;;;10.30;99.90;;;;;;5071071;28;20105;-75
2023/06/09 03:23:20;;;;;;;0.55;0.55;;;10.40;99.90;;;;;;5070977;28;20729;-74
2023/06/09 03:25:49;;;;;;;0.40;0.40;;;10.30;99.90;;;;;;5088263;28;20078;-74
2023/06/09 03:28:15;;;;;;;0.30;0.30;;;10.30;99.90;;;;;;5105584;28;20048;-75
2023/06/09 03:30:41;;;;;;;0.50;0.50;;;10.30;99.90;;;;;;5088211;28;20097;-74
2023/06/09 03:33:06;;;;;;;0.30;0.30;;;10.30;99.90;;;;;;5087803;28;20054;-74
2023/06/09 03:35:32;;;;;;;0.40;0.40;;;10.40;99.90;;;;;;5071321;28;20040;-74
2023/06/09 03:37:58;;;;;;;0.50;0.50;;;10.40;99.90;;;;;;5071513;28;20144;-74
2023/06/09 03:40:23;;;;;;;0.30;0.30;;;10.40;99.90;;;;;;5071010;28;20040;-75
2023/06/09 03:42:49;;;;;;;0.30;0.30;;;10.40;99.90;;;;;;5071363;28;20515;-75
2023/06/09 03:45:15;;;;;;;0.40;0.40;;;10.40;99.90;;;;;;5070791;28;20374;-75
2023/06/09 03:47:40;;;;;;;0.20;0.20;;;10.40;99.90;;;;;;5072624;28;20078;-75
2023/06/09 03:50:07;;;;;;;0.30;0.30;;;10.50;99.90;;;;;;5054757;28;20477;-74
2023/06/09 03:52:33;;;;;;;0.68;0.68;;;10.60;99.90;;;;;;5102811;28;20051;-74
2023/06/09 03:54:58;;;;;;;0.40;0.40;;;10.80;99.90;;;;;;5056066;28;20047;-74
2023/06/09 03:57:24;;;;;;;0.30;0.30;;;10.70;99.90;;;;;;5087962;28;20385;-74
2023/06/09 03:59:51;;;;;;;0.30;0.30;;;10.70;99.90;;;;;;5070944;28;20048;-75
2023/06/09 04:02:17;;;;;;;0.38;0.38;;;10.70;99.90;;;;;;5088379;28;20040;-74
2023/06/09 04:04:43;;;;;;;0.40;0.40;;;10.80;99.90;;;;;;5088450;28;20085;-74
2023/06/09 04:07:11;;;;;;;0.40;0.40;;;10.80;99.90;;;;;;5088891;28;20099;-74
2023/06/09 04:09:36;;;;;;;0.55;0.50;;;10.90;99.90;;;;;;5088741;28;20101;-74
2023/06/09 04:12:02;;;;;;;0.38;0.38;;;10.90;99.90;;;;;;5088404;28;20044;-75
2023/06/09 04:14:28;;;;;;;0.38;0.38;;;11.00;99.90;;;;;;5087293;28;20043;-74
2023/06/09 04:16:53;;;;;;;0.40;0.40;;;11.00;99.90;;;;;;5071514;28;20134;-75
2023/06/09 04:19:19;;;;;;;0.50;0.50;;;11.20;99.90;;;;;;5087399;28;20080;-75
2023/06/09 04:21:46;;;;;;;0.30;0.30;;;11.20;99.90;;;;;;5087562;28;20063;-75
2023/06/09 04:24:14;;;;;;;0.20;0.20;;;11.30;99.90;;;;;;5070500;28;20040;-75
2023/06/09 04:26:40;;;;;;;0.52;0.50;;;11.30;99.90;;;;;;5071081;28;20048;-75
2023/06/09 04:29:09;;;;;;;0.30;0.30;;;11.40;99.90;;;;;;5088435;28;20067;-74
2023/06/09 04:31:37;;;;;;;0.32;0.30;;;11.50;99.90;;;;;;5088454;28;20048;-75
2023/06/09 04:34:09;;;;;;;0.68;0.68;;;11.60;99.90;;;;;;5091507;28;20047;-76
2023/06/09 04:36:38;;;;;;;0.30;0.30;;;11.70;99.90;;;;;;5091521;28;20047;-75
2023/06/09 04:39:08;;;;;;;0.50;0.50;;;11.80;99.90;;;;;;5074908;28;20055;-75
2023/06/09 04:41:34;;;;;;;0.38;0.38;;;11.90;99.90;;;;;;5090832;28;20039;-75
2023/06/09 04:44:05;;;;;;;1.30;0.40;;;12.00;99.90;;;;;;5074312;28;20150;-74
2023/06/09 04:46:41;;;;;;;0.40;0.40;;;12.10;99.90;;;;;;5091189;28;20039;-75
2023/06/09 04:49:10;;;;;;;0.32;0.32;;;12.20;99.90;;;;;;5091722;28;20381;-75
2023/06/09 04:51:48;;;;;;;0.57;0.57;;;12.20;99.90;;;;;;5097386;28;20043;-75
2023/06/09 04:54:18;;;;;;;0.30;0.30;;;12.30;99.90;;;;;;5098953;28;20044;-75
2023/06/09 04:56:44;;;;;;;0.32;0.32;;;12.40;99.90;;;;;;5090993;28;20051;-75
2023/06/09 04:59:13;;;;;;;0.40;0.40;;;12.50;99.90;;;;;;5090801;28;20042;-75
2023/06/09 05:01:40;;;;;;;0.47;0.47;;;12.60;99.90;;;;;;5090935;28;20051;-75
2023/06/09 05:04:09;;;;;;;0.30;0.30;;;12.60;99.90;;;;;;5090983;28;20115;-75
2023/06/09 05:06:36;;;;;;;0.98;0.85;;;12.60;99.90;;;;;;5073539;28;20116;-75
2023/06/09 05:09:04;;;;;;;0.30;0.30;;;12.70;99.90;;;;;;5090681;28;20058;-75
2023/06/09 05:11:30;;;;;;;0.32;0.32;;;12.90;99.90;;;;;;5090941;28;20460;-75
2023/06/09 05:13:55;;;;;;;0.30;0.30;;;12.80;99.90;;;;;;5090882;28;20040;-75
2023/06/09 05:16:21;;;;;;;0.25;0.25;;;13.00;99.90;;;;;;5090423;28;20044;-75
2023/06/09 05:18:47;;;;;;;;;;;13.10;99.90;;;;;;5091223;28;20044;-75
2023/06/09 05:21:13;;;;;;;1.20;1.20;;;13.10;99.90;;;;;;5090272;28;19924;-75
2023/06/09 05:23:38;;;;;;;0.22;0.22;;;13.20;99.90;;;;;;5073716;28;20047;-75
2023/06/09 05:26:04;;;;;;;0.20;0.20;;;13.30;99.90;;;;;;5090856;28;20536;-75
2023/06/09 05:28:29;;;;;;;0.45;0.40;;;13.30;99.90;;;;;;5073448;28;20043;-75
2023/06/09 05:30:55;;;;;;;;;;;13.30;99.90;;;;;;5074299;28;20043;-75
2023/06/09 05:33:22;;;;;;;0.20;0.20;;;13.30;99.90;;;;;;5073309;28;19924;-75
2023/06/09 05:35:48;;;;;;;0.30;0.30;;;13.40;99.90;;;;;;5074037;28;20052;-75
2023/06/09 05:38:13;;;;;;;0.38;0.38;;;13.40;99.90;;;;;;5091860;28;20058;-75
2023/06/09 05:40:39;;;;;;;0.30;0.30;;;13.40;99.90;;;;;;5072906;28;20044;-75
2023/06/09 05:43:05;;;;;;;;;;;13.50;99.90;;;;;;5090455;28;20397;-75
2023/06/09 05:45:31;;;;;;;1.55;0.28;;;13.60;99.90;;;;;;5090405;28;19915;-75
2023/06/09 05:47:57;;;;;;;1.77;1.00;;;13.70;99.90;;;;;;5090255;28;20055;-75
2023/06/09 05:50:22;;;;;;;0.40;0.40;;;13.80;99.90;;;;;;5073117;28;20477;-74
2023/06/09 05:52:48;;;;;;;0.30;0.30;;;13.90;99.90;;;;;;5090293;28;20040;-76
2023/06/09 05:55:16;;;;;;;0.30;0.30;;;13.90;99.90;;;;;;5073483;28;20457;-75
2023/06/09 05:57:44;;;;;;;0.30;0.30;;;14.00;99.90;;;;;;5089493;28;20126;-75
2023/06/09 06:00:10;;;;;;;0.20;0.20;;;14.00;99.90;;;;;;5073242;28;20070;-75
2023/06/09 06:02:38;;;;;;;0.73;0.73;;;14.10;99.90;;;;;;5089773;28;20059;-75
2023/06/09 06:05:06;;;;;;;0.52;0.52;;;14.10;99.90;;;;;;5073626;28;20047;-75
2023/06/09 06:07:33;;;;;;;0.22;0.22;;;14.30;99.90;;;;;;5089506;28;20044;-75
2023/06/09 06:09:59;;;;;;;0.20;0.20;;;14.40;99.90;;;;;;5090183;28;20443;-75
2023/06/09 06:12:25;;;;;;;0.20;0.20;;;14.30;99.90;;;;;;5072773;28;20092;-75
2023/06/09 06:14:50;;;;;;;;;;;14.40;99.90;;;;;;5090470;28;20051;-75
2023/06/09 06:17:16;;;;;;;0.38;0.38;;;14.40;99.90;;;;;;5090624;28;19916;-75
2023/06/09 06:19:41;;;;;;;0.40;0.40;;;14.60;99.90;;;;;;5068698;28;20547;-75
2023/06/09 06:22:07;;;;;;;;;;;14.60;99.90;;;;;;5070299;28;20091;-75
2023/06/09 06:24:33;;;;;;;0.63;0.63;;;14.60;99.90;;;;;;5052741;28;19933;-75
2023/06/09 06:26:58;;;;;;;;;;;14.70;99.90;;;;;;5069631;28;20059;-75
2023/06/09 06:29:25;;;;;;;0.50;0.50;;;14.80;99.90;;;;;;5069047;28;20420;-75
2023/06/09 06:31:51;;;;;;;0.20;0.20;;;14.90;99.90;;;;;;5069568;28;20405;-75
2023/06/09 06:34:17;;;;;;;;;;;14.90;99.90;;;;;;5078154;28;20127;-75
2023/06/09 06:36:42;;;;;;;0.60;0.60;;;15.00;99.90;;;;;;5089208;28;20050;-75
2023/06/09 06:39:08;;;;;;;0.20;0.20;;;15.00;99.90;;;;;;5072587;28;20044;-75
2023/06/09 06:41:34;;;;;;;;;;;15.20;99.90;;;;;;5089601;28;20040;-75
2023/06/09 06:43:59;;;;;;;0.30;0.30;;;15.20;99.90;;;;;;5072528;28;20352;-75
2023/06/09 06:46:25;;;;;;;0.43;0.43;;;15.40;99.90;;;;;;5055396;28;20424;-76
2023/06/09 06:48:50;;;;;;;;;;;15.50;99.90;;;;;;5072868;28;20415;-75
2023/06/09 06:51:17;;;;;;;0.30;0.30;;;15.60;99.90;;;;;;5088933;28;19989;-74
2023/06/09 06:53:42;;;;;;;0.70;0.70;;;15.60;99.90;;;;;;5089097;28;20044;-75
2023/06/09 06:56:08;;;;;;;0.57;0.57;;;15.70;99.90;;;;;;5088292;28;20050;-75
2023/06/09 06:58:34;;;;;;;;;;;15.90;99.90;;;;;;5072058;28;20178;-75
2023/06/09 07:01:00;;;;;;;0.20;0.20;;;16.00;99.90;;;;;;5088875;28;19924;-75
2023/06/09 07:03:26;;;;;;;0.20;0.20;;;16.10;99.90;;;;;;5072092;28;20046;-75
2023/06/09 07:05:53;;;;;;;0.10;0.10;;;16.40;99.90;;;;;;5072501;28;20393;-75
2023/06/09 07:08:18;;;;;;;1.85;0.75;;;16.60;99.90;;;;;;5088630;28;20040;-75
2023/06/09 07:10:45;;;;;;;0.50;0.50;;;16.80;99.90;;;;;;5088299;28;20141;-76
2023/06/09 07:13:10;;;;;;;0.40;0.40;;;16.90;99.90;;;;;;5088607;28;20078;-75
2023/06/09 07:15:37;;;;;;;;;;;17.00;99.90;;;;;;5089077;28;20079;-75
2023/06/09 07:18:03;;;;;;;0.65;0.65;;;17.10;99.90;;;;;;5088623;28;19916;-74
2023/06/09 07:20:29;;;;;;;0.20;0.20;;;17.30;99.90;;;;;;5071283;28;20098;-74
2023/06/09 07:22:55;;;;;;;;;;;17.50;99.90;;;;;;5072610;28;20079;-74
2023/06/09 07:25:20;;;;;;;0.22;0.22;;;17.60;99.90;;;;;;5088856;28;19916;-74
2023/06/09 07:27:46;;;;;;;;;;;17.70;99.90;;;;;;5108146;28;20048;-75
2023/06/09 07:30:12;;;;;;;0.55;0.30;;;17.90;99.90;;;;;;5088658;28;19926;-74
2023/06/09 07:32:39;;;;;;;0.50;0.50;;;18.00;99.90;;;;;;5055042;28;20044;-75
2023/06/09 07:35:05;;;;;;;0.22;0.22;;;18.10;99.90;;;;;;5089019;28;20043;-75
2023/06/09 07:37:31;;;;;;;1.13;1.00;;;18.10;99.90;;;;;;5088638;28;20048;-75
2023/06/09 07:39:57;;;;;;;;;;;18.10;99.90;;;;;;5090073;28;20057;-75
2023/06/09 07:42:22;;;;;;;2.88;0.95;;;18.10;99.90;;;;;;5089144;28;19971;-75
2023/06/09 07:44:48;;;;;;;;;;;18.00;99.90;;;;;;5071993;28;20036;-75
2023/06/09 07:47:14;;;;;;;0.45;0.40;;;18.30;99.90;;;;;;5088953;28;20010;-76
2023/06/09 07:49:40;;;;;;;;;;;18.40;99.90;;;;;;5072304;28;20447;-75
2023/06/09 07:52:06;;;;;;;0.35;0.35;;;18.50;99.90;;;;;;5088399;28;19926;-75
2023/06/09 07:54:31;;;;;;;1.02;1.02;;;18.70;99.90;;;;;;5071175;28;20092;-74
2023/06/09 07:56:57;;;;;;;;;;;18.80;99.90;;;;;;5071992;28;20036;-75
2023/06/09 07:59:23;;;;;;;0.45;0.45;;;18.80;99.90;;;;;;5071706;28;20415;-74
2023/06/09 08:01:48;;;;;;;;;;;18.90;99.90;;;;;;5088811;28;20043;-75
2023/06/09 08:04:14;;;;;;;0.17;0.17;;;19.00;99.90;;;;;;5088964;28;20430;-74
2023/06/09 08:06:40;;;;;;;;;;;19.00;99.90;;;;;;5073233;28;20032;-75
2023/06/09 08:09:06;;;;;;;0.43;0.43;;;19.10;99.90;;;;;;5093345;28;19985;-74
2023/06/09 08:11:32;;;;;;;0.75;0.75;;;19.30;99.90;;;;;;5092834;28;20151;-74
2023/06/09 08:13:58;;;;;;;0.20;0.20;;;19.50;99.90;;;;;;5075997;28;20751;-75
2023/06/09 08:16:24;;;;;;;0.30;0.30;;;19.70;99.90;;;;;;5075598;28;20101;-75
2023/06/09 08:18:49;;;;;;;;;;;19.70;99.90;;;;;;5075829;28;20063;-76
2023/06/09 08:21:17;;;;;;;0.10;0.10;;;20.10;99.90;;;;;;5092028;28;20452;-75
2023/06/09 08:23:45;;;;;;;0.20;0.20;;;19.90;99.90;;;;;;5091910;28;20382;-76
2023/06/09 08:26:11;;;;;;;0.30;0.30;;;20.10;99.90;;;;;;5092605;28;20488;-75
2023/06/09 08:28:38;;;;;;;0.80;0.63;;;20.30;99.90;;;;;;5126164;27;20043;-75
2023/06/09 08:31:04;;;;;;;0.93;0.75;;;20.40;99.90;;;;;;5074995;28;20040;-75
2023/06/09 08:33:34;;;;;;;0.38;0.38;;;20.60;99.90;;;;;;5074719;28;20044;-75
2023/06/09 08:36:04;;;;;;;0.20;0.20;;;20.70;99.90;;;;;;5074738;28;20051;-74
2023/06/09 08:38:34;;;;;;;0.40;0.40;;;20.90;99.90;;;;;;5074867;28;20131;-75
2023/06/09 08:41:10;;;;;;;0.20;0.20;;;21.00;99.90;;;;;;5074823;28;20036;-75
2023/06/09 08:43:36;;;;;;;0.40;0.40;;;21.10;99.90;;;;;;5074347;28;20550;-75
2023/06/09 08:46:06;;;;;;;0.73;0.60;;;21.20;99.90;;;;;;5071982;28;20044;-75
2023/06/09 08:48:35;;;;;;;0.65;0.35;;;21.20;99.90;;;;;;5111112;27;20063;-75
2023/06/09 08:51:01;;;;;;;0.75;0.75;;;21.20;99.90;;;;;;5092605;28;20113;-76
2023/06/09 08:53:27;;;;;;;1.08;0.98;;;21.30;99.90;;;;;;5084819;28;20040;-76
2023/06/09 08:55:53;;;;;;;0.43;0.43;;;21.30;99.90;;;;;;5090869;28;20078;-76
2023/06/09 08:58:21;;;;;;;0.40;0.40;;;21.30;99.90;;;;;;5091228;28;20470;-75
2023/06/09 09:00:49;;;;;;;0.50;0.50;;;21.20;99.90;;;;;;5090969;28;20036;-75
2023/06/09 09:03:16;;;;;;;0.60;0.60;;;21.40;99.90;;;;;;5091053;28;20051;-76
2023/06/09 09:05:43;;;;;;;0.65;0.65;;;21.40;99.90;;;;;;5090235;28;20047;-75
2023/06/09 09:08:10;;;;;;;0.22;0.22;;;21.60;99.90;;;;;;5090728;28;20094;-75
2023/06/09 09:10:38;;;;;;;1.30;1.20;;;21.70;99.90;;;;;;5090709;28;20047;-76
2023/06/09 09:13:08;;;;;;;0.10;0.10;;;21.80;99.90;;;;;;5091976;28;20123;-75
2023/06/09 09:15:33;;;;;;;0.40;0.40;;;21.80;99.90;;;;;;5091143;28;20044;-75
2023/06/09 09:17:59;;;;;;;1.00;0.90;;;22.00;99.90;;;;;;5089692;28;20051;-76
2023/06/09 09:20:32;;;;;;;0.40;0.40;;;22.10;99.90;;;;;;5089911;28;20055;-75
2023/06/09 09:22:58;;;;;;;0.60;0.57;;;22.20;99.90;;;;;;5073296;28;20077;-76
2023/06/09 09:25:26;;;;;;;0.40;0.40;;;22.40;99.90;;;;;;5090938;28;20028;-75
2023/06/09 09:28:08;;;;;;;0.40;0.40;;;22.40;99.90;;;;;;5073121;28;20036;-75
2023/06/09 09:30:43;;;;;;;0.13;0.13;;;22.60;99.90;;;;;;5091058;28;20031;-77
2023/06/09 09:33:19;;;;;;;0.20;0.20;;;22.70;99.90;;;;;;5090655;28;20123;-75
2023/06/09 09:35:55;;;;;;;0.45;0.45;;;22.60;99.90;;;;;;5069949;28;20080;-75
2023/06/09 09:38:29;;;;;;;0.73;0.73;;;22.70;99.90;;;;;;5053367;28;20049;-75
2023/06/09 09:40:57;;;;;;;0.28;0.28;;;22.90;99.90;;;;;;5069908;28;20079;-76
2023/06/09 09:43:27;;;;;;;0.25;0.25;;;23.30;99.90;;;;;;5088218;28;20062;-75
2023/06/09 09:45:55;;;;;;;0.32;0.32;;;23.30;99.90;;;;;;5090386;28;20449;-76
2023/06/09 09:48:23;;;;;;;0.20;0.20;;;23.40;99.90;;;;;;5090550;28;20036;-76
2023/06/09 09:50:52;;;;;;;0.32;0.13;;;23.70;99.90;;;;;;5073112;28;20434;-76
2023/06/09 09:53:22;;;;;;;0.20;0.20;;;23.80;99.90;;;;;;5075873;28;20093;-76
2023/06/09 09:55:49;;;;;;;0.40;0.40;;;23.80;99.90;;;;;;5090889;28;20435;-76
2023/06/09 09:58:15;;;;;;;0.20;0.20;;;24.00;99.90;;;;;;5090632;28;20048;-76
2023/06/09 10:00:44;;;;;;;0.77;0.65;;;24.10;99.90;;;;;;5056229;28;20342;-76
2023/06/09 10:03:28;;;;;;;0.30;0.30;;;24.30;99.90;;;;;;5089938;28;20080;-76
2023/06/09 10:05:55;;;;;;;1.75;0.82;;;24.40;99.90;;;;;;5089732;28;20085;-76
2023/06/09 10:08:28;;;;;;;0.20;0.20;;;24.30;99.90;;;;;;5089992;28;20039;-76
2023/06/09 10:11:00;;;;;;;2.22;0.68;;;24.30;99.90;;;;;;5072450;28;20075;-76
2023/06/09 10:13:27;;;;;;;0.30;0.30;;;24.30;99.90;;;;;;5089607;28;20105;-77
2023/06/09 10:15:57;;;;;;;0.10;0.10;;;24.40;99.90;;;;;;5089325;28;20515;-77
2023/06/09 10:18:23;;;;;;;0.40;0.40;;;24.60;99.90;;;;;;5089804;28;20044;-76
2023/06/09 10:20:52;;;;;;;0.20;0.20;;;24.70;99.90;;;;;;5072514;28;20070;-76
2023/06/09 10:23:18;;;;;;;1.15;0.20;;;24.80;99.90;;;;;;5055962;28;20040;-76
2023/06/09 10:25:48;;;;;;;0.55;0.40;;;24.90;99.90;;;;;;5089334;28;20042;-75
2023/06/09 10:28:16;;;;;;;0.10;0.10;;;25.10;99.90;;;;;;5089523;28;20079;-76
2023/06/09 10:30:41;;;;;;;0.75;0.75;;;25.10;99.60;;;;;;5106138;28;20056;-76
2023/06/09 10:33:16;;;;;;;0.10;0.10;;;25.10;99.90;;;;;;5123822;27;20411;-76
2023/06/09 10:35:44;;;;;;;0.10;0.10;;;25.10;99.40;;;;;;5086274;28;20044;-76
2023/06/09 10:38:30;;;;;;;0.55;0.55;;;25.10;99.90;;;;;;5069058;28;20044;-76
2023/06/09 10:41:30;;;;;;;0.15;0.15;;;25.20;99.50;;;;;;5068920;28;20075;-77
2023/06/09 10:44:27;;;;;;;0.40;0.22;;;25.30;99.90;;;;;;5085615;28;20043;-76
2023/06/09 10:46:54;;;;;;;0.40;0.40;;;25.60;99.90;;;;;;5088868;28;20097;-76
2023/06/09 10:49:25;;;;;;;0.30;0.30;;;25.70;98.60;;;;;;5072505;28;20090;-76
2023/06/09 10:51:55;;;;;;;0.60;0.60;;;25.60;98.70;;;;;;5096921;28;20132;-76
2023/06/09 10:54:23;;;;;;;0.30;0.30;;;25.70;99.80;;;;;;5095740;28;20567;-76
2023/06/09 10:56:54;;;;;;;0.10;0.10;;;25.90;98.50;;;;;;5088605;28;20507;-76
2023/06/09 10:59:26;;;;;;;0.10;0.10;;;25.90;98.60;;;;;;5072313;28;20043;-76
2023/06/09 11:02:20;;;;;;;0.95;0.50;;;26.00;98.80;;;;;;5088702;28;20567;-76
2023/06/09 11:04:52;;;;;;;0.10;0.10;;;26.10;96.20;;;;;;5086894;28;20051;-76
2023/06/09 11:07:27;;;;;;;0.22;0.22;;;26.20;99.50;;;;;;5089110;28;20048;-76
2023/06/09 11:09:55;;;;;;;0.20;0.20;;;26.50;98.70;;;;;;5088422;28;20055;-76
2023/06/09 11:12:24;;;;;;;0.25;0.25;;;26.60;97.10;;;;;;5089182;28;20085;-76
2023/06/09 11:14:58;;;;;;;0.28;0.28;;;26.80;96.50;;;;;;5072344;28;20421;-76
2023/06/09 11:17:42;;;;;;;0.28;0.17;;;27.00;97.70;;;;;;5089204;28;20115;-76
2023/06/09 11:20:20;;;;;;;0.10;0.10;;;27.20;96.20;;;;;;5088067;28;20168;-76
2023/06/09 11:22:48;;;;;;;0.10;0.10;;;27.30;92.80;;;;;;5088183;28;20125;-76
2023/06/09 11:25:17;;;;;;;0.45;0.45;;;27.30;94.60;;;;;;5088705;28;20050;-76
2023/06/09 11:27:44;;;;;;;0.17;0.17;;;27.30;93.60;;;;;;5071852;28;20040;-77
2023/06/09 11:30:16;;;;;;;0.20;0.20;;;27.10;94.00;;;;;;5122291;27;20044;-76
2023/06/09 11:32:53;;;;;;;0.20;0.20;;;27.00;94.10;;;;;;5088774;28;20048;-76
2023/06/09 11:35:28;;;;;;;0.15;0.15;;;27.00;93.10;;;;;;5088586;28;20043;-77
2023/06/09 11:37:58;;;;;;;0.20;0.20;;;27.10;93.40;;;;;;5088202;28;20181;-77
2023/06/09 11:40:35;;;;;;;0.10;0.10;;;27.30;93.00;;;;;;5088486;28;20055;-77
2023/06/09 11:43:02;;;;;;;0.30;0.30;;;27.50;93.80;;;;;;5087560;28;20040;-77
2023/06/09 11:45:32;;;;;;;0.20;0.20;;;27.70;93.90;;;;;;5071910;28;20127;-77
2023/06/09 11:48:00;;;;;;;0.30;0.30;;;27.70;92.30;;;;;;5088060;28;20454;-77
2023/06/09 11:50:35;;;;;;;0.35;0.35;;;27.80;90.80;;;;;;5088122;28;20047;-77
2023/06/09 11:53:09;;;;;;;0.30;0.30;;;27.80;90.50;;;;;;5084892;28;20032;-76
2023/06/09 11:55:35;;;;;;;0.32;0.32;;;27.80;90.20;;;;;;5088673;28;20389;-76
2023/06/09 11:58:01;;;;;;;0.30;0.28;;;28.00;90.10;;;;;;5071288;28;20062;-76
2023/06/09 12:00:29;;;;;;;0.10;0.10;;;28.10;89.50;;;;;;5088391;28;20036;-76
2023/06/09 12:02:56;;;;;;;0.60;0.60;;;28.30;90.40;;;;;;5054582;28;20102;-76
2023/06/09 12:05:23;;;;;;;0.20;0.13;;;28.60;89.00;;;;;;5088445;28;20489;-76
2023/06/09 12:07:51;;;;;;;0.10;0.10;;;28.70;87.50;;;;;;5088786;28;20066;-77
2023/06/09 12:10:20;;;;;;;0.50;0.50;;;28.70;82.80;;;;;;5071703;28;20093;-77
2023/06/09 12:12:51;;;;;;;0.30;0.30;;;28.60;89.10;;;;;;5072194;28;20051;-76
2023/06/09 12:15:18;;;;;;;0.57;0.40;;;28.70;81.80;;;;;;5071855;28;20044;-76
2023/06/09 12:17:49;;;;;;;0.65;0.65;;;28.80;85.70;;;;;;5088158;28;20048;-77
2023/06/09 12:20:36;;;;;;;0.73;0.73;;;28.80;78.20;;;;;;5090569;28;20056;-76
2023/06/09 12:23:06;;;;;;;0.20;0.20;;;28.80;83.50;;;;;;5088217;28;20048;-77
2023/06/09 12:25:34;;;;;;;0.22;0.22;;;29.10;87.00;;;;;;5088395;28;20067;-76
2023/06/09 12:28:29;;;;;;;0.20;0.20;;;29.50;82.80;;;;;;5104901;28;20109;-76
2023/06/09 12:31:10;;;;;;;0.47;0.47;;;29.90;85.00;;;;;;5087730;28;20048;-76
2023/06/09 12:33:36;;;;;;;0.47;0.30;;;30.20;82.40;;;;;;5087915;28;20083;-76
2023/06/09 12:36:07;;;;;;;0.38;0.38;;;30.50;83.00;;;;;;5087610;28;20366;-76
2023/06/09 12:38:38;;;;;;;0.20;0.20;;;30.80;85.50;;;;;;5070854;28;20475;-77
2023/06/09 12:41:03;;;;;;;0.20;0.20;;;30.90;81.80;;;;;;5070732;28;20058;-76
2023/06/09 12:43:45;;;;;;;0.32;0.28;;;30.80;69.80;;;;;;5088135;28;20493;-76
2023/06/09 12:46:12;;;;;;;0.20;0.20;;;30.60;72.30;;;;;;5050774;28;20371;-77
2023/06/09 12:48:55;;;;;;;0.10;0.10;;;30.60;77.40;;;;;;5108667;28;20036;-77
2023/06/09 12:51:21;;;;;;;0.20;0.20;;;30.90;75.50;;;;;;5072045;28;20040;-77
2023/06/09 12:53:48;;;;;;;0.17;0.17;;;31.00;81.00;;;;;;5055631;28;20405;-77
2023/06/09 12:56:14;;;;;;;1.55;0.82;;;31.10;73.90;;;;;;5074096;28;20048;-77
2023/06/09 12:58:40;;;;;;;0.77;0.40;;;30.90;74.90;;;;;;5091489;28;20040;-77